createdAt,value
2019-05-10T00:00:51.283Z,6.00
2019-05-10T00:03:38.316Z,6.43
2019-05-10T00:06:25.212Z,9.57
2019-05-10T00:08:53.898Z,5.83
2019-05-10T00:11:59.068Z,6.60
2019-05-10T00:14:59.482Z,5.73
2019-05-10T00:17:29.126Z,5.97
2019-05-10T00:19:58.731Z,10.17
2019-05-10T00:22:28.272Z,5.07
2019-05-10T00:25:04.443Z,7.03
2019-05-10T00:27:29.057Z,8.07
2019-05-10T00:29:58.444Z,3.97
2019-05-10T00:32:28.003Z,5.70
2019-05-10T00:34:57.585Z,6.53
2019-05-10T00:37:27.074Z,7.90
2019-05-10T00:39:57.088Z,8.70
2019-05-10T00:42:26.490Z,7.07
2019-05-10T00:44:56.091Z,5.50
2019-05-10T00:47:25.542Z,4.70
2019-05-10T00:49:55.577Z,6.00
2019-05-10T00:52:25.011Z,5.37
2019-05-10T00:54:54.672Z,5.47
2019-05-10T00:57:24.190Z,5.93
2019-05-10T00:59:53.693Z,5.43
2019-05-10T01:02:23.128Z,7.43
2019-05-10T01:04:52.526Z,5.43
2019-05-10T01:07:21.927Z,5.93
2019-05-10T01:09:51.484Z,6.83
2019-05-10T01:12:26.264Z,6.67
2019-05-10T01:14:55.821Z,6.27
2019-05-10T01:17:27.457Z,6.80
2019-05-10T01:19:57.985Z,5.10
2019-05-10T01:22:27.584Z,7.63
2019-05-10T01:24:57.029Z,6.33
2019-05-10T01:27:27.572Z,5.80
2019-05-10T01:29:57.760Z,6.73
2019-05-10T01:32:27.109Z,5.97
2019-05-10T01:34:56.773Z,8.10
2019-05-10T01:37:26.344Z,6.23
2019-05-10T01:39:59.272Z,8.10
2019-05-10T01:42:28.758Z,8.73
2019-05-10T01:45:00.062Z,9.07
2019-05-10T01:47:31.377Z,5.83
2019-05-10T01:50:02.821Z,5.57
2019-05-10T01:52:32.219Z,5.30
2019-05-10T01:55:02.151Z,7.40
2019-05-10T01:57:31.837Z,8.37
2019-05-10T02:00:01.491Z,8.43
2019-05-10T02:02:30.994Z,8.77
2019-05-10T02:05:01.306Z,7.47
2019-05-10T02:07:30.769Z,7.87
2019-05-10T02:10:00.490Z,6.60
2019-05-10T02:12:30.293Z,7.97
2019-05-10T02:15:02.385Z,8.30
2019-05-10T02:17:31.865Z,7.47
2019-05-10T02:20:12.691Z,7.30
2019-05-10T02:22:42.043Z,6.40
2019-05-10T02:25:11.659Z,11.53
2019-05-10T02:27:41.805Z,7.13
2019-05-10T02:30:11.693Z,8.80
2019-05-10T02:32:41.063Z,6.53
2019-05-10T02:35:10.535Z,7.57
2019-05-10T02:37:39.926Z,7.67
2019-05-10T02:40:12.501Z,8.97
2019-05-10T02:42:42.104Z,9.50
2019-05-10T02:45:11.676Z,8.07
2019-05-10T02:47:41.436Z,9.60
2019-05-10T02:50:11.958Z,6.97
2019-05-10T02:52:41.312Z,9.70
2019-05-10T02:55:10.657Z,9.80
2019-05-10T02:57:40.087Z,6.97
2019-05-10T03:00:09.899Z,6.97
2019-05-10T03:02:40.199Z,10.70
2019-05-10T03:05:10.204Z,9.63
2019-05-10T03:07:39.792Z,6.67
2019-05-10T03:10:12.644Z,8.47
2019-05-10T03:12:42.519Z,10.20
2019-05-10T03:15:12.967Z,7.20
2019-05-10T03:17:42.730Z,6.37
2019-05-10T03:20:12.994Z,10.43
2019-05-10T03:22:43.863Z,11.07
2019-05-10T03:25:14.287Z,10.60
2019-05-10T03:27:44.019Z,10.17
2019-05-10T03:30:13.505Z,9.57
2019-05-10T03:32:42.889Z,9.50
2019-05-10T03:35:12.496Z,8.50
2019-05-10T03:37:42.001Z,9.77
2019-05-10T03:40:11.608Z,12.23
2019-05-10T03:42:41.098Z,10.07
2019-05-10T03:45:11.287Z,8.60
2019-05-10T03:47:40.757Z,13.77
2019-05-10T03:50:10.494Z,7.20
2019-05-10T03:52:41.112Z,8.03
2019-05-10T03:55:10.659Z,9.70
2019-05-10T03:57:40.060Z,8.20
2019-05-10T04:00:09.820Z,7.33
2019-05-10T04:02:39.203Z,11.40
2019-05-10T04:05:11.594Z,7.90
2019-05-10T04:07:41.010Z,10.27
2019-05-10T04:10:10.684Z,9.07
2019-05-10T04:12:40.070Z,8.77
2019-05-10T04:15:09.943Z,8.80
2019-05-10T04:17:39.384Z,9.07
2019-05-10T04:20:09.109Z,7.90
2019-05-10T04:22:38.527Z,7.97
2019-05-10T04:25:08.499Z,11.77
2019-05-10T04:27:37.918Z,10.10
2019-05-10T04:30:07.717Z,8.97
2019-05-10T04:32:37.133Z,9.00
2019-05-10T04:35:06.629Z,12.57
2019-05-10T04:37:36.096Z,7.47
2019-05-10T04:40:05.520Z,10.13
2019-05-10T04:42:34.940Z,8.50
2019-05-10T04:45:04.420Z,8.43
2019-05-10T04:47:34.016Z,8.40
2019-05-10T04:50:04.287Z,9.43
2019-05-10T04:52:33.716Z,8.77
2019-05-10T04:55:03.069Z,11.47
2019-05-10T04:57:49.184Z,9.73
2019-05-10T05:00:04.008Z,7.60
2019-05-10T05:02:33.363Z,9.33
2019-05-10T05:05:03.050Z,7.50
2019-05-10T05:07:32.388Z,10.47
2019-05-10T05:10:04.039Z,9.23
2019-05-10T05:12:33.507Z,9.10
2019-05-10T05:15:02.855Z,7.87
2019-05-10T05:17:32.245Z,10.43
2019-05-10T05:20:02.051Z,8.87
2019-05-10T05:22:31.402Z,9.83
2019-05-10T05:25:01.927Z,9.70
2019-05-10T05:27:32.287Z,7.53
2019-05-10T05:30:03.214Z,8.47
2019-05-10T05:32:32.569Z,8.00
2019-05-10T05:35:02.078Z,10.50
2019-05-10T05:37:31.824Z,9.07
2019-05-10T05:40:01.267Z,12.10
2019-05-10T05:42:30.895Z,8.90
2019-05-10T05:45:00.323Z,8.47
2019-05-10T05:47:37.474Z,8.73
2019-05-10T05:50:06.024Z,10.43
2019-05-10T05:52:35.425Z,7.17
2019-05-10T05:55:05.096Z,11.87
2019-05-10T05:57:59.278Z,10.47
2019-05-10T06:00:28.771Z,9.10
2019-05-10T06:02:58.166Z,8.70
2019-05-10T06:05:34.161Z,8.97
2019-05-10T06:07:58.745Z,8.77
2019-05-10T06:10:28.205Z,9.87
2019-05-10T06:12:57.657Z,8.60
2019-05-10T06:15:29.282Z,9.17
2019-05-10T06:18:03.532Z,10.17
2019-05-10T06:20:29.530Z,12.60
2019-05-10T06:23:06.334Z,8.77
2019-05-10T06:25:39.213Z,7.50
2019-05-10T06:28:03.038Z,8.30
2019-05-10T06:30:32.417Z,12.53
2019-05-10T06:33:11.887Z,12.90
2019-05-10T06:35:33.477Z,7.93
2019-05-10T06:38:02.869Z,11.67
2019-05-10T06:40:39.298Z,10.03
2019-05-10T06:43:07.094Z,8.70
2019-05-10T06:45:34.807Z,9.83
2019-05-10T06:48:04.191Z,8.63
2019-05-10T06:50:33.784Z,10.23
2019-05-10T06:53:07.722Z,10.77
2019-05-10T06:55:35.915Z,11.30
2019-05-10T06:58:06.806Z,9.87
2019-05-10T07:00:37.935Z,8.33
2019-05-10T07:03:07.362Z,9.03
2019-05-10T07:05:36.810Z,9.13
2019-05-10T07:08:14.217Z,9.00
2019-05-10T07:10:37.674Z,8.73
2019-05-10T07:13:07.139Z,12.43
2019-05-10T07:15:42.062Z,10.97
2019-05-10T07:18:07.903Z,8.87
2019-05-10T07:20:42.793Z,8.73
2019-05-10T07:23:10.346Z,8.10
2019-05-10T07:25:43.635Z,8.87
2019-05-10T07:28:15.632Z,9.07
2019-05-10T07:30:42.656Z,10.53
2019-05-10T07:33:12.186Z,6.93
2019-05-10T07:35:41.658Z,9.03
2019-05-10T07:38:11.022Z,6.40
2019-05-10T07:40:40.444Z,8.17
2019-05-10T07:43:10.002Z,8.83
2019-05-10T07:45:39.425Z,11.33
2019-05-10T07:48:10.405Z,7.70
2019-05-10T07:50:42.382Z,7.00
2019-05-10T07:53:16.241Z,7.70
2019-05-10T07:55:42.934Z,7.07
2019-05-10T07:58:12.391Z,8.27
2019-05-10T08:00:47.928Z,9.33
2019-05-10T08:03:23.529Z,8.43
2019-05-10T08:05:55.049Z,6.90
2019-05-10T08:08:19.864Z,7.93
2019-05-10T08:10:49.270Z,6.20
2019-05-10T08:13:21.149Z,6.77
2019-05-10T08:15:59.444Z,7.10
2019-05-10T08:18:29.345Z,6.87
2019-05-10T08:21:17.460Z,7.80
2019-05-10T08:23:33.362Z,6.17
2019-05-10T08:26:04.428Z,6.07
2019-05-10T08:28:37.902Z,8.30
2019-05-10T08:31:13.248Z,7.83
2019-05-10T08:33:44.207Z,10.43
2019-05-10T08:36:13.988Z,7.33
2019-05-10T08:38:46.730Z,8.33
2019-05-10T08:41:18.151Z,5.47
2019-05-10T08:43:46.059Z,9.97
2019-05-10T08:46:19.417Z,7.80
2019-05-10T08:48:50.544Z,6.13
2019-05-10T08:51:18.055Z,6.70
2019-05-10T08:53:55.193Z,7.17
2019-05-10T08:56:21.719Z,8.87
2019-05-10T08:58:50.237Z,6.67
2019-05-10T09:01:27.608Z,6.37
2019-05-10T09:03:59.404Z,5.83
2019-05-10T09:06:23.805Z,6.77
2019-05-10T09:09:01.587Z,8.90
2019-05-10T09:11:24.326Z,5.67
2019-05-10T09:13:57.494Z,5.97
2019-05-10T09:16:29.105Z,5.87
2019-05-10T09:18:58.345Z,9.50
2019-05-10T09:21:27.906Z,7.23
2019-05-10T09:24:01.366Z,8.03
2019-05-10T09:26:32.262Z,6.13
2019-05-10T09:29:02.765Z,8.63
2019-05-10T09:31:32.736Z,6.20
2019-05-10T09:34:05.565Z,10.10
2019-05-10T09:36:36.309Z,8.10
2019-05-10T09:39:09.258Z,8.20
2019-05-10T09:41:38.582Z,8.87
2019-05-10T09:44:08.222Z,8.87
2019-05-10T09:46:37.696Z,6.07
2019-05-10T09:49:15.820Z,8.50
2019-05-10T09:51:42.243Z,5.77
2019-05-10T09:54:12.817Z,10.03
2019-05-10T09:56:44.974Z,7.43
2019-05-10T09:59:13.321Z,9.50
2019-05-10T10:01:42.724Z,9.50
2019-05-10T10:04:12.675Z,8.57
2019-05-10T10:06:47.163Z,7.13
2019-05-10T10:09:13.436Z,6.30
2019-05-10T10:11:48.539Z,9.43
2019-05-10T10:14:14.095Z,6.20
2019-05-10T10:16:48.897Z,9.47
2019-05-10T10:19:17.288Z,7.73
2019-05-10T10:21:47.605Z,7.67
2019-05-10T10:24:20.064Z,9.93
2019-05-10T10:26:48.333Z,6.77
2019-05-10T10:29:17.734Z,8.73
2019-05-10T10:31:55.245Z,7.70
2019-05-10T10:34:18.287Z,7.13
2019-05-10T10:36:47.698Z,10.67
2019-05-10T10:39:17.309Z,11.73
2019-05-10T10:41:51.712Z,8.87
2019-05-10T10:44:19.486Z,7.93
2019-05-10T10:46:49.030Z,8.03
2019-05-10T10:49:23.157Z,9.07
2019-05-10T10:51:50.404Z,12.43
2019-05-10T10:54:22.485Z,8.33
2019-05-10T10:56:51.276Z,6.37
2019-05-10T10:59:20.625Z,8.83
2019-05-10T11:02:04.695Z,7.63
2019-05-10T11:04:21.217Z,7.00
2019-05-10T11:06:50.601Z,9.63
2019-05-10T11:09:20.704Z,9.93
2019-05-10T11:11:51.585Z,12.87
2019-05-10T11:14:21.122Z,12.13
2019-05-10T11:16:55.434Z,9.73
2019-05-10T11:19:22.038Z,11.47
2019-05-10T11:22:09.656Z,10.90
2019-05-10T11:24:35.071Z,10.97
2019-05-10T11:27:07.196Z,8.87
2019-05-10T11:29:35.604Z,7.50
2019-05-10T11:32:14.639Z,8.80
2019-05-10T11:34:37.992Z,6.90
2019-05-10T11:37:07.219Z,8.63
2019-05-10T11:39:42.042Z,6.20
2019-05-10T11:42:07.907Z,7.40
2019-05-10T11:44:41.511Z,7.70
2019-05-10T11:47:22.481Z,5.77
2019-05-10T11:49:40.684Z,8.23
2019-05-10T11:52:13.109Z,7.73
2019-05-10T11:54:42.802Z,6.13
2019-05-10T11:59:03.771Z,6.10
2019-05-10T11:59:43.376Z,5.27
2019-05-10T12:02:33.841Z,6.43
2019-05-10T12:04:44.422Z,6.63
2019-05-10T12:07:13.909Z,4.60
2019-05-10T12:09:43.477Z,5.80
2019-05-10T12:12:12.941Z,5.80
2019-05-10T12:14:46.187Z,5.33
2019-05-10T12:17:14.468Z,4.77
2019-05-10T12:19:48.795Z,7.30
2019-05-10T12:22:16.070Z,4.57
2019-05-10T12:25:00.352Z,6.87
2019-05-10T12:27:25.971Z,5.37
2019-05-10T12:29:55.566Z,5.50
2019-05-10T12:32:21.391Z,4.10
2019-05-10T12:34:56.315Z,6.90
2019-05-10T12:37:22.015Z,5.50
2019-05-10T12:39:53.183Z,5.43
2019-05-10T12:42:22.831Z,6.43
2019-05-10T12:44:55.850Z,5.33
2019-05-10T12:47:23.985Z,9.87
2019-05-10T12:50:01.815Z,6.87
2019-05-10T12:52:28.521Z,5.17
2019-05-10T12:54:58.450Z,5.00
2019-05-10T12:57:27.838Z,5.07
2019-05-10T12:59:57.417Z,5.60
2019-05-10T13:02:27.237Z,4.60
2019-05-10T13:04:58.820Z,5.70
2019-05-10T13:07:30.769Z,5.20
2019-05-10T13:10:03.930Z,5.40
2019-05-10T13:12:31.367Z,6.10
2019-05-10T13:15:00.869Z,4.53
2019-05-10T13:17:30.392Z,7.37
2019-05-10T13:20:00.721Z,7.27
2019-05-10T13:22:37.174Z,6.43
2019-05-10T13:25:04.641Z,5.30
2019-05-10T13:27:36.437Z,5.90
2019-05-10T13:30:08.818Z,6.07
2019-05-10T13:32:38.495Z,5.20
2019-05-10T13:35:08.476Z,5.10
2019-05-10T13:37:38.265Z,4.00
2019-05-10T13:40:08.550Z,6.87
2019-05-10T13:42:52.636Z,6.10
2019-05-10T13:45:24.089Z,5.17
2019-05-10T13:47:53.304Z,4.60
2019-05-10T13:50:23.374Z,4.47
2019-05-10T13:52:53.549Z,5.73
2019-05-10T13:55:24.351Z,4.47
2019-05-10T13:57:56.992Z,5.97
2019-05-10T14:00:33.464Z,4.77
2019-05-10T14:02:58.192Z,4.43
2019-05-10T14:05:30.112Z,6.20
2019-05-10T14:08:00.741Z,5.33
2019-05-10T14:10:30.285Z,4.90
2019-05-10T14:13:02.356Z,5.60
2019-05-10T14:15:33.721Z,4.00
2019-05-10T14:18:03.136Z,5.03
2019-05-10T14:20:32.603Z,4.67
2019-05-10T14:23:02.126Z,3.03
2019-05-10T14:25:36.230Z,5.77
2019-05-10T14:28:02.788Z,4.83
2019-05-10T14:30:32.464Z,3.17
2019-05-10T14:33:02.020Z,5.47
2019-05-10T14:35:31.423Z,5.50
2019-05-10T14:38:08.447Z,6.53
2019-05-10T14:40:32.456Z,5.90
2019-05-10T14:43:04.447Z,4.77
2019-05-10T14:45:33.821Z,5.10
2019-05-10T14:48:03.175Z,8.70
2019-05-10T14:50:32.595Z,4.30
2019-05-10T14:53:02.272Z,5.73
2019-05-10T14:55:34.784Z,5.53
2019-05-10T14:58:03.464Z,7.83
2019-05-10T15:00:35.874Z,5.63
2019-05-10T15:03:05.359Z,8.83
2019-05-10T15:05:36.529Z,6.70
2019-05-10T15:08:06.096Z,5.13
2019-05-10T15:10:39.549Z,4.80
2019-05-10T15:13:06.667Z,4.33
2019-05-10T15:15:37.331Z,6.07
2019-05-10T15:18:07.003Z,6.10
2019-05-10T15:20:36.459Z,5.57
2019-05-10T15:23:05.845Z,6.03
2019-05-10T15:25:35.247Z,4.50
2019-05-10T15:28:04.693Z,4.47
2019-05-10T15:30:39.237Z,4.10
2019-05-10T15:33:08.196Z,3.83
2019-05-10T15:35:37.880Z,4.30
2019-05-10T15:38:07.277Z,4.33
2019-05-10T15:40:38.813Z,4.40
2019-05-10T15:43:10.429Z,5.13
2019-05-10T15:45:39.222Z,3.73
2019-05-10T15:48:08.677Z,4.67
2019-05-10T15:50:40.714Z,4.83
2019-05-10T15:53:09.279Z,5.47
2019-05-10T15:55:38.938Z,5.37
2019-05-10T15:58:08.671Z,3.30
2019-05-10T16:00:41.222Z,3.33
2019-05-10T16:03:09.242Z,3.33
2019-05-10T16:05:43.634Z,2.60
2019-05-10T16:08:13.602Z,3.77
2019-05-10T16:10:42.928Z,5.00
2019-05-10T16:13:14.553Z,4.37
2019-05-10T16:15:43.583Z,4.30
2019-05-10T16:18:13.083Z,5.87
2019-05-10T16:20:42.500Z,4.50
2019-05-10T16:23:11.862Z,3.90
2019-05-10T16:25:47.659Z,4.70
2019-05-10T16:28:18.850Z,6.47
2019-05-10T16:30:46.919Z,6.73
2019-05-10T16:33:15.778Z,6.20
2019-05-10T16:35:49.507Z,4.43
2019-05-10T16:38:16.697Z,8.20
2019-05-10T16:40:57.486Z,3.80
2019-05-10T16:43:23.954Z,4.67
2019-05-10T16:45:48.361Z,7.00
2019-05-10T16:48:38.858Z,4.73
2019-05-10T16:51:09.964Z,4.37
2019-05-10T16:53:43.637Z,8.63
2019-05-10T16:56:13.409Z,6.17
2019-05-10T16:58:41.949Z,4.47
2019-05-10T17:01:11.793Z,5.60
2019-05-10T17:03:41.243Z,6.00
2019-05-10T17:06:10.646Z,7.90
2019-05-10T17:08:40.059Z,7.03
2019-05-10T17:11:11.767Z,7.00
2019-05-10T17:13:41.609Z,5.63
2019-05-10T17:16:16.972Z,7.17
2019-05-10T17:18:43.197Z,8.97
2019-05-10T17:21:12.589Z,6.40
2019-05-10T17:23:46.968Z,8.30
2019-05-10T17:26:13.237Z,5.87
2019-05-10T17:28:42.661Z,5.40
2019-05-10T17:31:12.004Z,5.57
2019-05-10T17:33:42.643Z,6.93
2019-05-10T17:36:14.559Z,5.80
2019-05-10T17:38:47.173Z,6.97
2019-05-10T17:41:19.120Z,6.33
2019-05-10T17:43:45.910Z,6.90
2019-05-10T17:46:18.767Z,6.00
2019-05-10T17:48:47.471Z,4.00
2019-05-10T17:51:17.703Z,3.77
2019-05-10T17:53:47.076Z,2.73
2019-05-10T17:56:16.837Z,2.63
2019-05-10T17:58:46.459Z,2.40
2019-05-10T18:01:15.851Z,3.97
2019-05-10T18:03:46.265Z,2.97
2019-05-10T18:06:23.600Z,5.47
2019-05-10T18:08:46.757Z,3.10
2019-05-10T18:11:16.177Z,3.83
2019-05-10T18:13:45.536Z,3.97
2019-05-10T18:16:14.976Z,4.37
2019-05-10T18:18:47.064Z,3.73
2019-05-10T18:21:21.032Z,3.30
2019-05-10T18:23:46.660Z,3.60
2019-05-10T18:26:16.070Z,5.07
2019-05-10T18:28:45.437Z,3.37
2019-05-10T18:31:14.841Z,4.07
2019-05-10T18:33:53.435Z,2.93
2019-05-10T18:36:16.480Z,3.17
2019-05-10T18:38:45.987Z,2.90
2019-05-10T18:41:15.376Z,3.93
2019-05-10T18:43:44.871Z,3.13
2019-05-10T18:46:14.252Z,3.30
2019-05-10T18:48:43.664Z,4.07
2019-05-10T18:51:18.099Z,3.40
2019-05-10T18:53:44.137Z,2.60
2019-05-10T18:56:13.587Z,3.30
2019-05-10T18:58:43.295Z,2.57
2019-05-10T19:01:12.663Z,3.20
2019-05-10T19:03:42.072Z,2.70
2019-05-10T19:06:13.270Z,3.10
2019-05-10T19:08:44.159Z,3.30
2019-05-10T19:11:14.127Z,3.67
2019-05-10T19:13:47.825Z,2.83
2019-05-10T19:16:14.867Z,3.20
2019-05-10T19:18:44.625Z,3.60
2019-05-10T19:21:14.091Z,3.47
2019-05-10T19:23:43.465Z,3.90
2019-05-10T19:26:12.867Z,3.90
2019-05-10T19:28:42.234Z,3.43
2019-05-10T19:31:11.588Z,3.80
2019-05-10T19:33:40.976Z,4.33
2019-05-10T19:36:13.060Z,3.93
2019-05-10T19:38:41.501Z,4.73
2019-05-10T19:41:11.110Z,4.23
2019-05-10T19:43:40.571Z,4.20
2019-05-10T19:46:10.054Z,3.90
2019-05-10T19:48:39.487Z,4.10
2019-05-10T19:51:10.030Z,3.97
2019-05-10T19:53:42.230Z,4.53
2019-05-10T19:56:11.935Z,3.63
2019-05-10T19:58:41.506Z,3.93
2019-05-10T20:01:11.031Z,3.70
2019-05-10T20:03:40.715Z,4.23
2019-05-10T20:06:10.170Z,3.47
2019-05-10T20:08:39.578Z,4.13
2019-05-10T20:11:09.384Z,3.70
2019-05-10T20:13:38.757Z,4.77
2019-05-10T20:16:08.138Z,3.93
2019-05-10T20:18:37.542Z,5.67
2019-05-10T20:21:06.888Z,3.40
2019-05-10T20:23:36.304Z,4.40
2019-05-10T20:26:05.715Z,3.27
2019-05-10T20:28:35.091Z,4.10
2019-05-10T20:31:04.466Z,4.07
2019-05-10T20:33:34.274Z,3.67
2019-05-10T20:36:03.652Z,3.60
2019-05-10T20:38:33.145Z,3.93
2019-05-10T20:41:02.525Z,3.33
2019-05-10T20:43:32.302Z,5.10
2019-05-10T20:46:01.738Z,3.97
2019-05-10T20:48:31.333Z,4.10
2019-05-10T20:51:02.724Z,4.13
2019-05-10T20:53:32.195Z,4.80
2019-05-10T20:56:02.016Z,4.07
2019-05-10T20:58:34.572Z,5.80
2019-05-10T21:01:04.330Z,3.97
2019-05-10T21:03:34.353Z,4.17
2019-05-10T21:06:03.716Z,5.67
2019-05-10T21:08:33.231Z,4.20
2019-05-10T21:11:04.013Z,4.00
2019-05-10T21:13:50.290Z,5.47
2019-05-10T21:16:19.765Z,4.90
2019-05-10T21:18:49.285Z,5.03
2019-05-10T21:21:18.657Z,6.10
2019-05-10T21:23:48.604Z,4.23
2019-05-10T21:26:17.960Z,4.50
2019-05-10T21:28:47.309Z,4.10
2019-05-10T21:31:16.772Z,3.93
2019-05-10T21:33:46.540Z,3.80
2019-05-10T21:36:15.922Z,4.20
2019-05-10T21:38:50.508Z,3.77
2019-05-10T21:41:20.891Z,3.00
2019-05-10T21:43:50.486Z,7.03
2019-05-10T21:46:19.873Z,3.37
2019-05-10T21:48:49.286Z,3.57
2019-05-10T21:51:18.655Z,2.90
2019-05-10T21:53:48.567Z,3.70
2019-05-10T21:56:17.919Z,3.60
2019-05-10T21:58:47.602Z,3.57
2019-05-10T22:01:17.730Z,3.63
2019-05-10T22:03:47.512Z,3.93
2019-05-10T22:06:17.063Z,3.80
2019-05-10T22:08:49.403Z,3.90
2019-05-10T22:11:18.075Z,3.77
2019-05-10T22:13:47.877Z,3.10
2019-05-10T22:16:17.252Z,3.40
2019-05-10T22:18:48.282Z,2.90
2019-05-10T22:21:17.683Z,2.83
2019-05-10T22:23:47.578Z,3.27
2019-05-10T22:26:16.942Z,2.77
2019-05-10T22:28:46.391Z,3.20
2019-05-10T22:31:15.805Z,3.17
2019-05-10T22:33:45.212Z,3.10
2019-05-10T22:36:14.573Z,2.90
2019-05-10T22:38:44.039Z,3.00
2019-05-10T22:41:13.440Z,5.10
2019-05-10T22:43:42.856Z,3.20
2019-05-10T22:46:12.399Z,3.27
2019-05-10T22:48:41.783Z,2.80
2019-05-10T22:51:11.162Z,3.50
2019-05-10T22:53:40.565Z,2.80
2019-05-10T22:56:09.960Z,2.93
2019-05-10T22:58:39.310Z,2.77
2019-05-10T23:01:08.805Z,2.87
2019-05-10T23:03:39.597Z,2.83
2019-05-10T23:06:08.996Z,3.23
2019-05-10T23:08:38.371Z,3.23
2019-05-10T23:11:08.067Z,3.70
2019-05-10T23:13:37.428Z,3.03
2019-05-10T23:16:06.836Z,3.37
2019-05-10T23:18:36.262Z,3.23
2019-05-10T23:21:05.644Z,3.00
2019-05-10T23:23:35.041Z,3.53
2019-05-10T23:26:04.448Z,3.60
2019-05-10T23:28:33.828Z,4.40
2019-05-10T23:31:03.339Z,6.17
2019-05-10T23:33:32.780Z,5.10
2019-05-10T23:36:02.311Z,4.60
2019-05-10T23:38:31.690Z,3.87
2019-05-10T23:41:01.183Z,4.97
2019-05-10T23:43:30.552Z,4.20
2019-05-10T23:46:00.060Z,4.47
2019-05-10T23:48:29.419Z,4.30
2019-05-10T23:50:59.041Z,4.67
2019-05-10T23:53:31.124Z,3.97
2019-05-10T23:56:00.535Z,4.20
2019-05-10T23:58:33.186Z,4.63
